createdAt,value
2019-02-25T00:00:53.447Z,-0.15
2019-02-25T00:03:22.096Z,-0.16
2019-02-25T00:05:48.884Z,-0.32
2019-02-25T00:09:11.940Z,-0.29
2019-02-25T00:11:38.796Z,-0.27
2019-02-25T00:14:05.708Z,-0.23
2019-02-25T00:16:32.593Z,-0.25
2019-02-25T00:18:59.428Z,-0.15
2019-02-25T00:21:26.324Z,0.11
2019-02-25T00:23:52.957Z,0.19
2019-02-25T00:26:19.670Z,0.30
2019-02-25T00:29:42.804Z,0.36
2019-02-25T00:32:09.718Z,0.61
2019-02-25T00:34:38.410Z,0.84
2019-02-25T00:37:04.974Z,0.71
2019-02-25T00:39:31.645Z,0.64
2019-02-25T00:41:58.496Z,0.68
2019-02-25T00:44:25.268Z,0.98
2019-02-25T00:46:53.847Z,1.06
2019-02-25T00:49:20.457Z,1.03
2019-02-25T00:51:47.133Z,1.16
2019-02-25T00:54:13.803Z,1.03
2019-02-25T00:56:40.609Z,1.06
2019-02-25T00:59:07.171Z,1.15
2019-02-25T01:01:33.818Z,1.11
2019-02-25T01:04:00.668Z,1.18
2019-02-25T01:06:27.500Z,1.13
2019-02-25T01:08:54.328Z,1.19
2019-02-25T01:11:21.108Z,1.19
2019-02-25T01:13:47.804Z,1.26
2019-02-25T01:16:14.411Z,1.26
2019-02-25T01:18:41.039Z,1.18
2019-02-25T01:21:07.729Z,1.19
2019-02-25T01:23:34.315Z,1.13
2019-02-25T01:26:01.093Z,1.25
2019-02-25T01:28:27.679Z,1.20
2019-02-25T01:30:54.428Z,1.08
2019-02-25T01:33:21.021Z,1.03
2019-02-25T01:35:47.748Z,1.11
2019-02-25T01:38:15.713Z,1.20
2019-02-25T01:40:42.743Z,1.37
2019-02-25T01:43:09.525Z,1.52
2019-02-25T01:45:36.183Z,1.58
2019-02-25T01:48:03.127Z,1.71
2019-02-25T01:50:29.697Z,1.64
2019-02-25T01:52:57.385Z,1.62
2019-02-25T01:55:24.162Z,1.67
2019-02-25T01:57:50.832Z,1.69
2019-02-25T02:00:18.478Z,1.66
2019-02-25T02:02:45.347Z,1.59
2019-02-25T02:05:12.920Z,1.62
2019-02-25T02:07:39.938Z,1.64
2019-02-25T02:10:11.667Z,1.62
2019-02-25T02:12:38.310Z,1.65
2019-02-25T02:15:10.617Z,1.69
2019-02-25T02:17:38.317Z,1.78
2019-02-25T02:20:09.790Z,1.87
2019-02-25T02:22:36.730Z,1.82
2019-02-25T02:25:06.020Z,1.81
2019-02-25T02:27:32.574Z,1.79
2019-02-25T02:29:59.220Z,1.68
2019-02-25T02:32:27.094Z,1.67
2019-02-25T02:34:53.703Z,1.72
2019-02-25T02:37:20.311Z,1.69
2019-02-25T02:39:46.895Z,1.70
2019-02-25T02:42:18.004Z,1.77
2019-02-25T02:44:48.790Z,1.80
2019-02-25T02:47:19.222Z,1.77
2019-02-25T02:49:45.862Z,1.83
2019-02-25T02:52:12.550Z,1.83
2019-02-25T02:54:39.177Z,1.80
2019-02-25T02:57:05.796Z,1.68
2019-02-25T02:59:32.371Z,1.68
2019-02-25T03:01:58.968Z,1.82
2019-02-25T03:04:25.791Z,1.66
2019-02-25T03:06:52.371Z,1.66
2019-02-25T03:09:19.135Z,1.67
2019-02-25T03:11:45.698Z,1.69
2019-02-25T03:14:12.292Z,1.68
2019-02-25T03:16:38.869Z,1.67
2019-02-25T03:19:06.134Z,1.62
2019-02-25T03:21:32.725Z,1.59
2019-02-25T03:23:59.304Z,1.57
2019-02-25T03:26:25.939Z,1.57
2019-02-25T03:28:52.679Z,1.47
2019-02-25T03:31:19.276Z,1.60
2019-02-25T03:33:46.012Z,1.61
2019-02-25T03:36:12.593Z,1.62
2019-02-25T03:38:39.201Z,1.55
2019-02-25T03:41:05.863Z,1.55
2019-02-25T03:43:32.539Z,1.55
2019-02-25T03:45:59.117Z,1.65
2019-02-25T03:48:25.942Z,1.53
2019-02-25T03:50:52.541Z,1.55
2019-02-25T03:53:19.319Z,1.59
2019-02-25T03:55:46.017Z,1.57
2019-02-25T03:58:12.570Z,1.53
2019-02-25T04:00:39.143Z,1.63
2019-02-25T04:03:05.887Z,1.62
2019-02-25T04:05:32.725Z,1.58
2019-02-25T04:07:59.385Z,1.40
2019-02-25T04:10:27.061Z,1.35
2019-02-25T04:12:53.650Z,1.38
2019-02-25T04:15:22.407Z,1.36
2019-02-25T04:17:49.291Z,1.36
2019-02-25T04:20:16.949Z,1.34
2019-02-25T04:22:43.630Z,1.31
2019-02-25T04:25:10.504Z,1.37
2019-02-25T04:27:37.272Z,1.36
2019-02-25T04:30:09.387Z,1.33
2019-02-25T04:32:36.100Z,1.24
2019-02-25T04:35:07.965Z,1.24
2019-02-25T04:37:34.707Z,1.33
2019-02-25T04:40:01.364Z,1.25
2019-02-25T04:42:27.971Z,1.36
2019-02-25T04:44:54.743Z,1.36
2019-02-25T04:47:21.319Z,1.30
2019-02-25T04:50:25.910Z,1.33
2019-02-25T04:52:52.585Z,1.37
2019-02-25T04:55:19.136Z,1.34
2019-02-25T04:57:45.702Z,1.33
2019-02-25T05:00:18.037Z,1.42
2019-02-25T05:02:44.826Z,1.34
2019-02-25T05:05:11.714Z,1.33
2019-02-25T05:07:38.496Z,1.19
2019-02-25T05:10:13.298Z,1.44
2019-02-25T05:12:41.902Z,1.41
2019-02-25T05:15:11.404Z,1.32
2019-02-25T05:17:37.948Z,1.32
2019-02-25T05:20:06.770Z,1.31
2019-02-25T05:22:33.360Z,1.30
2019-02-25T05:25:00.472Z,1.16
2019-02-25T05:27:27.378Z,1.20
2019-02-25T05:29:53.975Z,1.23
2019-02-25T05:32:20.690Z,1.20
2019-02-25T05:34:47.268Z,1.18
2019-02-25T05:37:13.836Z,1.18
2019-02-25T05:39:40.447Z,1.12
2019-02-25T05:42:07.031Z,1.33
2019-02-25T05:44:35.032Z,1.23
2019-02-25T05:47:01.615Z,1.24
2019-02-25T05:49:28.217Z,1.25
2019-02-25T05:51:54.870Z,1.24
2019-02-25T05:54:21.436Z,1.22
2019-02-25T05:56:48.174Z,1.24
2019-02-25T05:59:14.783Z,1.20
2019-02-25T06:01:41.358Z,1.20
2019-02-25T06:04:11.207Z,1.27
2019-02-25T06:06:37.811Z,1.37
2019-02-25T06:09:04.789Z,1.37
2019-02-25T06:11:31.532Z,1.45
2019-02-25T06:13:58.229Z,1.54
2019-02-25T06:16:24.912Z,1.56
2019-02-25T06:18:51.523Z,1.59
2019-02-25T06:21:18.091Z,1.52
2019-02-25T06:23:46.102Z,1.65
2019-02-25T06:26:12.764Z,1.68
2019-02-25T06:28:39.385Z,1.84
2019-02-25T06:31:06.048Z,1.98
2019-02-25T06:33:32.689Z,1.95
2019-02-25T06:35:59.242Z,1.93
2019-02-25T06:38:25.960Z,2.06
2019-02-25T06:40:52.539Z,1.99
2019-02-25T06:43:19.246Z,2.11
2019-02-25T06:45:46.016Z,2.11
2019-02-25T06:48:12.685Z,2.22
2019-02-25T06:50:39.349Z,2.39
2019-02-25T06:53:05.998Z,2.52
2019-02-25T06:55:32.693Z,2.60
2019-02-25T06:57:59.267Z,2.64
2019-02-25T07:00:26.056Z,2.64
2019-02-25T07:02:52.596Z,2.59
2019-02-25T07:05:21.339Z,2.71
2019-02-25T07:07:49.839Z,2.76
2019-02-25T07:11:31.896Z,2.93
2019-02-25T07:14:00.457Z,2.94
2019-02-25T07:16:29.070Z,2.94
2019-02-25T07:18:57.570Z,2.95
2019-02-25T07:21:26.059Z,2.99
2019-02-25T07:23:58.391Z,3.00
2019-02-25T07:26:27.661Z,3.10
2019-02-25T07:28:54.594Z,3.23
2019-02-25T07:31:23.226Z,3.18
2019-02-25T07:33:51.754Z,3.14
2019-02-25T07:36:20.204Z,3.18
2019-02-25T07:38:49.745Z,3.21
2019-02-25T07:41:18.203Z,3.41
2019-02-25T07:43:49.698Z,3.28
2019-02-25T07:46:18.244Z,3.34
2019-02-25T07:48:46.837Z,3.38
2019-02-25T07:51:17.416Z,3.41
2019-02-25T07:53:46.054Z,3.57
2019-02-25T07:56:14.732Z,3.61
2019-02-25T07:58:43.195Z,3.70
2019-02-25T08:01:11.673Z,3.89
2019-02-25T08:03:40.123Z,3.52
2019-02-25T08:06:08.715Z,3.90
2019-02-25T08:11:24.033Z,4.18
2019-02-25T08:13:52.526Z,4.27
2019-02-25T08:16:21.172Z,4.24
2019-02-25T08:19:44.040Z,4.09
2019-02-25T08:22:12.549Z,4.26
2019-02-25T08:24:41.191Z,4.24
2019-02-25T08:27:10.130Z,4.25
2019-02-25T08:29:38.706Z,4.45
2019-02-25T08:32:07.279Z,4.54
2019-02-25T08:34:35.754Z,4.46
2019-02-25T08:37:10.001Z,4.51
2019-02-25T08:39:39.492Z,4.72
2019-02-25T08:42:08.569Z,4.73
2019-02-25T08:44:37.080Z,4.99
2019-02-25T08:47:05.572Z,4.81
2019-02-25T08:49:34.259Z,5.05
2019-02-25T08:52:01.133Z,5.31
2019-02-25T08:54:28.469Z,4.98
2019-02-25T08:56:55.064Z,5.24
2019-02-25T08:59:22.016Z,5.14
2019-02-25T09:01:48.797Z,5.25
2019-02-25T09:04:15.334Z,5.35
2019-02-25T09:06:41.935Z,4.96
2019-02-25T09:09:08.991Z,5.29
2019-02-25T09:11:35.855Z,5.28
2019-02-25T09:14:02.769Z,5.64
2019-02-25T09:16:29.410Z,5.77
2019-02-25T09:18:57.882Z,5.75
2019-02-25T09:21:31.576Z,5.97
2019-02-25T09:24:49.796Z,5.94
2019-02-25T09:27:16.418Z,5.85
2019-02-25T09:29:44.815Z,5.90
2019-02-25T09:32:11.675Z,6.16
2019-02-25T09:34:38.480Z,6.29
2019-02-25T09:37:05.236Z,6.33
2019-02-25T09:39:32.104Z,6.32
2019-02-25T09:41:58.899Z,6.36
2019-02-25T09:45:21.969Z,6.35
2019-02-25T09:47:48.708Z,6.67
2019-02-25T09:50:19.706Z,6.62
2019-02-25T09:52:46.246Z,6.77
2019-02-25T09:55:13.137Z,6.85
2019-02-25T09:57:40.984Z,6.65
2019-02-25T10:00:13.285Z,6.88
2019-02-25T10:02:39.953Z,6.91
2019-02-25T10:05:07.539Z,6.83
2019-02-25T10:07:34.226Z,7.12
2019-02-25T10:10:01.367Z,7.31
2019-02-25T10:12:27.915Z,7.47
2019-02-25T10:14:54.488Z,7.56
2019-02-25T10:17:23.842Z,7.42
2019-02-25T10:19:49.654Z,7.59
2019-02-25T10:22:16.254Z,7.39
2019-02-25T10:24:43.013Z,7.48
2019-02-25T10:27:09.778Z,7.59
2019-02-25T10:29:36.345Z,7.76
2019-02-25T10:32:04.860Z,7.67
2019-02-25T10:34:31.692Z,7.85
2019-02-25T10:36:58.834Z,7.99
2019-02-25T10:39:25.630Z,8.01
2019-02-25T10:41:53.275Z,7.82
2019-02-25T10:44:20.762Z,7.77
2019-02-25T10:46:49.112Z,7.97
2019-02-25T10:49:15.994Z,8.10
2019-02-25T10:51:43.926Z,8.36
2019-02-25T10:54:11.367Z,8.06
2019-02-25T10:56:43.555Z,8.37
2019-02-25T10:59:10.365Z,8.24
2019-02-25T11:01:39.133Z,8.38
2019-02-25T11:04:05.672Z,8.32
2019-02-25T11:06:35.453Z,8.23
2019-02-25T11:09:03.328Z,8.17
2019-02-25T11:11:34.081Z,8.18
2019-02-25T11:14:01.395Z,8.30
2019-02-25T11:16:29.474Z,8.51
2019-02-25T11:18:57.001Z,8.62
2019-02-25T11:21:24.848Z,8.75
2019-02-25T11:23:53.321Z,8.86
2019-02-25T11:26:20.058Z,8.94
2019-02-25T11:28:46.622Z,8.93
2019-02-25T11:31:13.313Z,8.85
2019-02-25T11:33:40.259Z,8.94
2019-02-25T11:36:06.858Z,8.80
2019-02-25T11:38:37.093Z,8.94
2019-02-25T11:41:04.104Z,9.21
2019-02-25T11:43:31.015Z,9.06
2019-02-25T11:45:57.741Z,9.40
2019-02-25T11:48:24.411Z,9.34
2019-02-25T11:50:51.150Z,9.38
2019-02-25T11:53:17.861Z,9.50
2019-02-25T11:55:44.560Z,9.48
2019-02-25T11:58:11.159Z,9.41
2019-02-25T12:00:39.829Z,9.41
2019-02-25T12:03:06.532Z,9.46
2019-02-25T12:05:33.322Z,9.50
2019-02-25T12:08:00.019Z,9.63
2019-02-25T12:10:26.781Z,9.75
2019-02-25T12:12:53.499Z,9.48
2019-02-25T12:15:25.812Z,9.37
2019-02-25T12:17:52.376Z,9.62
2019-02-25T12:20:19.243Z,9.45
2019-02-25T12:22:46.066Z,9.38
2019-02-25T12:25:16.656Z,9.23
2019-02-25T12:27:43.379Z,9.47
2019-02-25T12:30:14.037Z,9.63
2019-02-25T12:32:40.749Z,9.81
2019-02-25T12:35:09.419Z,9.99
2019-02-25T12:37:37.195Z,10.04
2019-02-25T12:40:08.677Z,9.93
2019-02-25T12:42:35.358Z,10.02
2019-02-25T12:45:04.130Z,9.85
2019-02-25T12:47:32.061Z,9.76
2019-02-25T12:50:54.826Z,9.72
2019-02-25T12:53:21.424Z,9.76
2019-02-25T12:55:48.680Z,9.75
2019-02-25T12:58:17.997Z,9.81
2019-02-25T13:00:44.818Z,9.48
2019-02-25T13:03:11.599Z,9.38
2019-02-25T13:05:38.251Z,9.55
2019-02-25T13:08:05.010Z,9.58
2019-02-25T13:10:31.822Z,9.28
2019-02-25T13:12:58.375Z,9.17
2019-02-25T13:15:25.048Z,9.34
2019-02-25T13:17:51.855Z,9.42
2019-02-25T13:20:18.834Z,9.38
2019-02-25T13:22:45.401Z,9.47
2019-02-25T13:25:17.708Z,9.47
2019-02-25T13:27:44.467Z,9.28
2019-02-25T13:30:15.810Z,9.31
2019-02-25T13:32:42.449Z,8.76
2019-02-25T13:35:13.275Z,8.93
2019-02-25T13:37:40.391Z,8.87
2019-02-25T13:40:11.658Z,9.03
2019-02-25T13:42:38.383Z,9.17
2019-02-25T13:45:09.902Z,9.20
2019-02-25T13:47:37.025Z,9.02
2019-02-25T13:50:08.901Z,8.91
2019-02-25T13:52:35.602Z,8.61
2019-02-25T13:55:04.903Z,8.88
2019-02-25T13:57:31.742Z,8.50
2019-02-25T13:59:59.074Z,8.53
2019-02-25T14:02:26.006Z,8.48
2019-02-25T14:04:52.767Z,8.32
2019-02-25T14:07:20.688Z,8.27
2019-02-25T14:09:47.570Z,8.42
2019-02-25T14:12:15.434Z,8.42
2019-02-25T14:14:42.067Z,8.33
2019-02-25T14:17:09.858Z,8.43
2019-02-25T14:19:36.733Z,8.34
2019-02-25T14:22:04.928Z,8.08
2019-02-25T14:24:31.726Z,8.12
2019-02-25T14:26:58.731Z,8.11
2019-02-25T14:29:26.605Z,8.17
2019-02-25T14:31:53.541Z,8.01
2019-02-25T14:34:20.356Z,8.28
2019-02-25T14:36:48.488Z,8.41
2019-02-25T14:39:24.946Z,8.23
2019-02-25T14:41:48.829Z,8.29
2019-02-25T14:44:15.769Z,7.99
2019-02-25T14:46:42.649Z,7.82
2019-02-25T14:49:09.589Z,7.77
2019-02-25T14:51:36.393Z,7.95
2019-02-25T14:54:04.504Z,7.81
2019-02-25T14:56:31.778Z,7.70
2019-02-25T14:59:00.613Z,7.98
2019-02-25T15:01:28.002Z,7.99
2019-02-25T15:03:57.628Z,7.75
2019-02-25T15:06:25.919Z,7.87
2019-02-25T15:08:53.164Z,7.76
2019-02-25T15:11:20.016Z,7.75
2019-02-25T15:13:47.051Z,7.44
2019-02-25T15:17:10.967Z,7.54
2019-02-25T15:19:40.779Z,7.49
2019-02-25T15:22:08.057Z,7.30
2019-02-25T15:24:34.863Z,7.35
2019-02-25T15:27:02.384Z,7.38
2019-02-25T15:29:32.129Z,7.13
2019-02-25T15:32:01.967Z,7.03
2019-02-25T15:34:29.310Z,7.17
2019-02-25T15:36:56.419Z,6.78
2019-02-25T15:39:25.919Z,6.65
2019-02-25T15:41:55.078Z,6.64
2019-02-25T15:44:21.991Z,6.67
2019-02-25T15:46:49.480Z,6.54
2019-02-25T15:49:17.353Z,6.37
2019-02-25T15:51:45.315Z,6.39
2019-02-25T15:54:12.114Z,6.34
2019-02-25T15:56:39.254Z,6.05
2019-02-25T15:59:06.062Z,6.21
2019-02-25T16:01:33.015Z,6.22
2019-02-25T16:04:02.402Z,5.94
2019-02-25T16:06:29.213Z,5.92
2019-02-25T16:08:58.847Z,5.86
2019-02-25T16:11:26.602Z,5.76
2019-02-25T16:13:55.355Z,5.72
2019-02-25T16:16:22.370Z,5.58
2019-02-25T16:18:49.713Z,5.40
2019-02-25T16:21:16.666Z,5.37
2019-02-25T16:23:45.266Z,5.40
2019-02-25T16:26:13.593Z,5.26
2019-02-25T16:28:41.096Z,5.25
2019-02-25T16:31:08.878Z,5.03
2019-02-25T16:33:36.900Z,5.00
2019-02-25T16:36:05.608Z,4.82
2019-02-25T16:38:34.286Z,4.88
2019-02-25T16:41:05.547Z,4.85
2019-02-25T16:43:31.949Z,4.55
2019-02-25T16:45:59.452Z,4.33
2019-02-25T16:48:28.189Z,4.26
2019-02-25T16:50:55.903Z,4.11
2019-02-25T16:53:22.581Z,4.06
2019-02-25T16:57:04.493Z,4.19
2019-02-25T16:59:31.292Z,4.28
2019-02-25T17:02:02.284Z,4.27
2019-02-25T17:04:31.697Z,4.15
2019-02-25T17:07:00.269Z,4.22
2019-02-25T17:09:29.253Z,4.20
2019-02-25T17:11:57.942Z,4.20
2019-02-25T17:14:25.629Z,4.13
2019-02-25T17:16:52.335Z,4.04
2019-02-25T17:19:19.641Z,4.15
2019-02-25T17:22:44.157Z,4.03
2019-02-25T17:25:12.675Z,4.06
2019-02-25T17:27:39.660Z,4.09
2019-02-25T17:30:12.691Z,4.01
2019-02-25T17:32:41.946Z,4.02
2019-02-25T17:35:13.198Z,3.83
2019-02-25T17:37:40.647Z,3.71
2019-02-25T17:40:13.157Z,3.75
2019-02-25T17:42:40.428Z,3.87
2019-02-25T17:45:12.315Z,3.84
2019-02-25T17:47:39.693Z,3.84
2019-02-25T17:50:11.943Z,3.59
2019-02-25T17:52:40.399Z,3.46
2019-02-25T17:55:14.626Z,3.68
2019-02-25T17:57:43.804Z,3.54
2019-02-25T18:00:17.225Z,3.53
2019-02-25T18:02:44.443Z,3.31
2019-02-25T18:05:13.724Z,3.15
2019-02-25T18:07:41.990Z,3.30
2019-02-25T18:10:14.661Z,3.30
2019-02-25T18:12:41.705Z,3.28
2019-02-25T18:15:14.583Z,3.31
2019-02-25T18:17:42.717Z,3.13
2019-02-25T18:20:11.943Z,3.16
2019-02-25T18:22:42.067Z,3.10
2019-02-25T18:25:10.295Z,3.13
2019-02-25T18:27:39.301Z,3.16
2019-02-25T18:30:14.558Z,3.24
2019-02-25T18:32:45.919Z,3.30
2019-02-25T18:35:14.436Z,3.27
2019-02-25T18:37:43.487Z,3.10
2019-02-25T18:40:14.020Z,2.98
2019-02-25T18:42:43.285Z,3.25
2019-02-25T18:45:16.534Z,3.17
2019-02-25T18:47:44.833Z,3.21
2019-02-25T18:50:19.170Z,3.22
2019-02-25T18:52:44.943Z,3.25
2019-02-25T18:55:15.804Z,3.02
2019-02-25T18:57:43.793Z,3.29
2019-02-25T19:00:19.977Z,3.38
2019-02-25T19:02:50.809Z,3.18
2019-02-25T19:05:23.424Z,3.34
2019-02-25T19:07:53.356Z,3.30
2019-02-25T19:10:24.745Z,3.22
2019-02-25T19:12:53.860Z,3.54
2019-02-25T19:15:21.355Z,3.40
2019-02-25T19:17:49.985Z,3.51
2019-02-25T19:20:17.196Z,3.44
2019-02-25T19:22:47.780Z,3.39
2019-02-25T19:25:18.151Z,3.32
2019-02-25T19:27:45.412Z,3.51
2019-02-25T19:31:10.476Z,3.60
2019-02-25T19:33:37.356Z,3.53
2019-02-25T19:36:04.848Z,3.53
2019-02-25T19:38:36.044Z,3.41
2019-02-25T19:41:01.620Z,3.52
2019-02-25T19:43:28.455Z,3.42
2019-02-25T19:45:57.165Z,3.68
2019-02-25T19:48:28.689Z,3.58
2019-02-25T19:50:54.580Z,3.54
2019-02-25T19:53:23.005Z,3.48
2019-02-25T19:55:51.797Z,3.50
2019-02-25T19:58:18.836Z,3.58
2019-02-25T20:00:45.578Z,3.56
2019-02-25T20:03:12.310Z,3.61
2019-02-25T20:05:43.475Z,3.63
2019-02-25T20:08:08.337Z,3.50
2019-02-25T20:10:35.241Z,3.67
2019-02-25T20:13:05.665Z,3.53
2019-02-25T20:15:31.640Z,3.63
2019-02-25T20:18:00.664Z,3.67
2019-02-25T20:20:29.533Z,3.69
2019-02-25T20:22:57.905Z,3.48
2019-02-25T20:25:26.513Z,3.69
2019-02-25T20:27:55.141Z,3.77
2019-02-25T20:30:26.491Z,3.66
2019-02-25T20:32:53.410Z,3.79
2019-02-25T20:35:22.215Z,3.60
2019-02-25T20:37:53.020Z,3.64
2019-02-25T20:40:21.198Z,3.55
2019-02-25T20:42:50.915Z,3.71
2019-02-25T20:45:23.664Z,3.80
2019-02-25T20:47:52.176Z,3.71
2019-02-25T20:50:20.914Z,3.65
2019-02-25T20:52:48.831Z,3.65
2019-02-25T20:55:16.123Z,3.74
2019-02-25T20:58:42.519Z,3.79
2019-02-25T21:01:11.529Z,3.68
2019-02-25T21:04:36.772Z,3.65
2019-02-25T21:07:06.146Z,3.58
2019-02-25T21:09:39.907Z,3.73
2019-02-25T21:12:08.251Z,3.80
2019-02-25T21:14:38.513Z,3.75
2019-02-25T21:17:06.885Z,3.69
2019-02-25T21:20:31.482Z,3.71
2019-02-25T21:23:02.877Z,3.70
2019-02-25T21:25:31.234Z,3.90
2019-02-25T21:27:59.944Z,3.94
2019-02-25T21:30:26.998Z,3.75
2019-02-25T21:32:58.778Z,3.76
2019-02-25T21:35:28.295Z,3.70
2019-02-25T21:37:54.744Z,3.85
2019-02-25T21:40:25.043Z,3.89
2019-02-25T21:42:53.928Z,3.82
2019-02-25T21:45:22.421Z,3.76
2019-02-25T21:47:52.304Z,3.84
2019-02-25T21:50:26.293Z,3.73
2019-02-25T21:52:50.881Z,3.89
2019-02-25T21:55:18.225Z,3.82
2019-02-25T21:57:46.085Z,3.68
2019-02-25T22:00:16.845Z,3.78
2019-02-25T22:02:45.941Z,3.72
2019-02-25T22:05:14.271Z,3.74
2019-02-25T22:07:41.981Z,3.68
2019-02-25T22:10:12.208Z,3.67
2019-02-25T22:12:40.506Z,3.68
2019-02-25T22:15:13.054Z,3.69
2019-02-25T22:17:43.886Z,3.62
2019-02-25T22:21:09.163Z,3.66
2019-02-25T22:23:37.139Z,3.58
2019-02-25T22:27:00.192Z,3.73
2019-02-25T22:29:26.883Z,3.63
2019-02-25T22:31:53.555Z,3.54
2019-02-25T22:34:22.363Z,3.59
2019-02-25T22:36:50.964Z,3.69
2019-02-25T22:39:17.327Z,3.74
2019-02-25T22:41:44.453Z,3.63
2019-02-25T22:44:12.540Z,3.49
2019-02-25T22:46:41.221Z,3.28
2019-02-25T22:49:09.422Z,3.38
2019-02-25T22:51:38.622Z,3.32
2019-02-25T22:54:06.200Z,3.31
2019-02-25T22:56:33.825Z,3.48
2019-02-25T22:59:02.696Z,3.46
2019-02-25T23:01:29.138Z,3.38
2019-02-25T23:03:57.341Z,3.35
2019-02-25T23:06:25.379Z,3.35
2019-02-25T23:08:53.282Z,3.31
2019-02-25T23:11:22.101Z,3.30
2019-02-25T23:13:50.379Z,3.28
2019-02-25T23:16:20.440Z,3.27
2019-02-25T23:18:47.830Z,3.41
2019-02-25T23:21:23.477Z,3.27
2019-02-25T23:23:43.429Z,3.39
2019-02-25T23:26:12.614Z,3.31
2019-02-25T23:28:39.648Z,3.39
2019-02-25T23:31:07.634Z,3.53
2019-02-25T23:33:38.192Z,3.32
2019-02-25T23:36:03.083Z,3.35
2019-02-25T23:38:29.683Z,3.24
2019-02-25T23:40:56.428Z,3.15
2019-02-25T23:43:23.022Z,3.17
2019-02-25T23:45:49.623Z,2.99
2019-02-25T23:48:16.237Z,3.27
2019-02-25T23:50:43.109Z,3.14
2019-02-25T23:53:09.839Z,3.06
2019-02-25T23:55:36.483Z,3.13
2019-02-25T23:58:03.231Z,3.18
